createdAt,value
2022-10-11T00:00:46.646Z,93.95
2022-10-11T00:03:14.438Z,93.91
2022-10-11T00:05:43.839Z,94.38
2022-10-11T00:08:11.565Z,94.64
2022-10-11T00:10:39.009Z,94.83
2022-10-11T00:13:08.467Z,94.35
2022-10-11T00:15:35.965Z,94.95
2022-10-11T00:18:05.529Z,94.76
2022-10-11T00:20:33.084Z,95.10
2022-10-11T00:23:00.556Z,95.68
2022-10-11T00:25:28.428Z,95.82
2022-10-11T00:27:55.864Z,95.78
2022-10-11T00:30:24.613Z,95.91
2022-10-11T00:32:52.137Z,96.14
2022-10-11T00:35:19.659Z,96.40
2022-10-11T00:37:47.150Z,96.06
2022-10-11T00:40:17.584Z,96.51
2022-10-11T00:42:45.199Z,96.52
2022-10-11T00:45:52.130Z,96.65
2022-10-11T00:48:27.510Z,97.09
2022-10-11T00:50:56.563Z,97.87
2022-10-11T00:53:24.258Z,98.18
2022-10-11T00:55:57.016Z,98.00
2022-10-11T00:58:24.944Z,98.19
2022-10-11T01:00:53.971Z,98.13
2022-10-11T01:03:27.772Z,98.56
2022-10-11T01:05:56.488Z,98.37
2022-10-11T01:08:24.101Z,98.21
2022-10-11T01:10:52.774Z,98.16
2022-10-11T01:13:31.138Z,97.47
2022-10-11T01:16:08.915Z,97.55
2022-10-11T01:18:49.674Z,97.48
2022-10-11T01:21:31.843Z,97.52
2022-10-11T01:24:39.658Z,97.74
2022-10-11T01:27:37.921Z,97.84
2022-10-11T01:30:19.371Z,98.68
2022-10-11T01:32:54.898Z,98.99
2022-10-11T01:35:29.229Z,99.07
2022-10-11T01:38:00.606Z,99.43
2022-10-11T01:40:32.745Z,99.14
2022-10-11T01:43:02.597Z,98.81
2022-10-11T01:45:33.703Z,98.95
2022-10-11T01:48:08.896Z,98.53
2022-10-11T01:50:44.209Z,99.17
2022-10-11T01:53:41.212Z,98.77
2022-10-11T01:56:22.600Z,99.26
2022-10-11T01:59:04.524Z,100.00
2022-10-11T02:01:46.401Z,100.00
2022-10-11T02:04:22.348Z,100.00
2022-10-11T02:06:58.320Z,100.00
2022-10-11T02:09:32.383Z,99.52
2022-10-11T02:12:07.438Z,99.18
2022-10-11T02:14:40.157Z,98.58
2022-10-11T02:17:13.758Z,98.71
2022-10-11T02:19:45.142Z,98.55
2022-10-11T02:22:19.118Z,98.72
2022-10-11T02:24:50.512Z,98.96
2022-10-11T02:27:21.588Z,98.83
2022-10-11T02:29:50.822Z,98.53
2022-10-11T02:32:21.843Z,98.36
2022-10-11T02:34:53.238Z,98.64
2022-10-11T02:37:26.810Z,97.95
2022-10-11T02:39:57.733Z,97.97
2022-10-11T02:42:30.627Z,98.28
2022-10-11T02:45:01.513Z,98.23
2022-10-11T02:47:32.352Z,98.07
2022-10-11T02:50:00.899Z,98.23
2022-10-11T02:52:28.315Z,97.97
2022-10-11T02:54:55.738Z,97.89
2022-10-11T02:57:23.255Z,97.62
2022-10-11T02:59:50.653Z,97.95
2022-10-11T03:02:18.067Z,98.78
2022-10-11T03:04:46.890Z,98.78
2022-10-11T03:07:14.708Z,99.51
2022-10-11T03:09:42.400Z,99.56
2022-10-11T03:12:09.880Z,99.68
2022-10-11T03:14:37.340Z,99.74
2022-10-11T03:17:31.058Z,99.98
2022-10-11T03:19:54.016Z,99.38
2022-10-11T03:22:22.143Z,99.63
2022-10-11T03:24:49.621Z,99.43
2022-10-11T03:27:17.040Z,99.37
2022-10-11T03:29:44.462Z,99.79
2022-10-11T03:32:11.911Z,99.58
2022-10-11T03:34:39.350Z,99.37
2022-10-11T03:37:08.176Z,99.00
2022-10-11T03:39:35.830Z,98.58
2022-10-11T03:42:03.253Z,98.49
2022-10-11T03:44:30.648Z,97.83
2022-10-11T03:46:58.063Z,97.25
2022-10-11T03:49:25.748Z,97.39
2022-10-11T03:51:53.185Z,97.18
2022-10-11T03:54:21.974Z,97.32
2022-10-11T03:56:49.625Z,97.40
2022-10-11T03:59:17.129Z,97.87
2022-10-11T04:01:44.612Z,97.77
2022-10-11T04:04:12.124Z,97.25
2022-10-11T04:06:39.586Z,97.33
2022-10-11T04:09:07.050Z,97.24
2022-10-11T04:11:36.088Z,97.35
2022-10-11T04:14:03.515Z,97.76
2022-10-11T04:16:30.937Z,97.51
2022-10-11T04:18:58.347Z,97.53
2022-10-11T04:21:25.760Z,98.11
2022-10-11T04:23:53.188Z,98.14
2022-10-11T04:26:20.622Z,98.69
2022-10-11T04:28:49.429Z,98.88
2022-10-11T04:31:16.953Z,98.65
2022-10-11T04:33:44.384Z,98.88
2022-10-11T04:36:11.814Z,98.06
2022-10-11T04:38:39.204Z,98.23
2022-10-11T04:41:07.835Z,98.15
2022-10-11T04:43:35.336Z,98.11
2022-10-11T04:46:04.590Z,97.87
2022-10-11T04:48:32.356Z,97.79
2022-10-11T04:50:59.828Z,98.57
2022-10-11T04:53:27.292Z,98.27
2022-10-11T04:56:00.928Z,98.68
2022-10-11T04:58:28.879Z,99.19
2022-10-11T05:00:56.528Z,99.04
2022-10-11T05:03:26.294Z,98.64
2022-10-11T05:05:54.153Z,98.62
2022-10-11T05:08:23.062Z,98.54
2022-10-11T05:10:56.664Z,98.56
2022-10-11T05:13:24.170Z,98.84
2022-10-11T05:15:51.681Z,98.46
2022-10-11T05:18:19.199Z,97.99
2022-10-11T05:20:48.221Z,97.16
2022-10-11T05:23:15.714Z,96.97
2022-10-11T05:25:43.206Z,96.14
2022-10-11T05:28:10.670Z,96.25
2022-10-11T05:30:38.155Z,96.82
2022-10-11T05:33:05.628Z,97.21
2022-10-11T05:35:33.083Z,97.45
2022-10-11T05:38:01.884Z,97.95
2022-10-11T05:40:29.332Z,97.93
2022-10-11T05:42:56.744Z,98.02
2022-10-11T05:45:24.200Z,98.36
2022-10-11T05:47:51.629Z,98.42
2022-10-11T05:50:24.017Z,98.73
2022-10-11T05:52:51.844Z,98.70
2022-10-11T05:55:20.674Z,98.34
2022-10-11T05:57:48.109Z,98.58
2022-10-11T06:00:16.163Z,98.54
2022-10-11T06:02:43.564Z,98.57
2022-10-11T06:05:11.107Z,99.11
2022-10-11T06:07:38.854Z,100.00
2022-10-11T06:10:07.501Z,100.00
2022-10-11T06:12:36.375Z,100.00
2022-10-11T06:15:04.468Z,100.00
2022-10-11T06:17:31.902Z,100.00
2022-10-11T06:19:59.301Z,100.00
2022-10-11T06:22:27.405Z,100.00
2022-10-11T06:24:54.804Z,100.00
2022-10-11T06:27:22.413Z,100.00
2022-10-11T06:29:51.268Z,100.00
2022-10-11T06:32:18.732Z,100.00
2022-10-11T06:34:46.137Z,100.00
2022-10-11T06:37:13.764Z,100.00
2022-10-11T06:39:41.282Z,100.00
2022-10-11T06:42:08.720Z,100.00
2022-10-11T06:44:36.140Z,100.00
2022-10-11T06:47:04.990Z,99.77
2022-10-11T06:49:32.424Z,99.11
2022-10-11T06:51:59.839Z,98.80
2022-10-11T06:54:27.508Z,99.29
2022-10-11T06:56:54.939Z,99.66
2022-10-11T06:59:22.386Z,100.00
2022-10-11T07:01:49.832Z,100.00
2022-10-11T07:04:18.640Z,100.00
2022-10-11T07:06:46.068Z,100.00
2022-10-11T07:09:13.522Z,100.00
2022-10-11T07:11:40.971Z,99.60
2022-10-11T07:14:08.588Z,98.88
2022-10-11T07:16:36.944Z,97.06
2022-10-11T07:19:06.830Z,95.70
2022-10-11T07:21:36.598Z,96.15
2022-10-11T07:24:04.622Z,96.65
2022-10-11T07:26:38.843Z,97.48
2022-10-11T07:29:08.279Z,98.60
2022-10-11T07:31:36.982Z,99.09
2022-10-11T07:34:04.404Z,98.04
2022-10-11T07:36:31.868Z,97.33
2022-10-11T07:39:00.760Z,98.89
2022-10-11T07:41:28.172Z,99.70
2022-10-11T07:43:55.596Z,99.69
2022-10-11T07:46:23.218Z,99.42
2022-10-11T07:48:50.974Z,99.38
2022-10-11T07:51:20.879Z,100.00
2022-10-11T07:53:50.413Z,100.00
2022-10-11T07:56:21.621Z,99.46
2022-10-11T07:58:52.212Z,97.50
2022-10-11T08:01:20.647Z,95.56
2022-10-11T08:03:48.542Z,95.79
2022-10-11T08:06:18.431Z,95.93
2022-10-11T08:08:45.858Z,95.28
2022-10-11T08:11:22.419Z,96.40
2022-10-11T08:13:50.027Z,94.18
2022-10-11T08:16:17.637Z,94.34
2022-10-11T08:18:45.496Z,91.41
2022-10-11T08:21:15.464Z,92.15
2022-10-11T08:23:43.356Z,92.78
2022-10-11T08:26:10.877Z,92.98
2022-10-11T08:28:39.816Z,90.10
2022-10-11T08:31:07.766Z,90.37
2022-10-11T08:33:35.224Z,91.09
2022-10-11T08:36:05.540Z,90.24
2022-10-11T08:38:33.483Z,90.71
2022-10-11T08:41:02.378Z,91.97
2022-10-11T08:43:37.323Z,90.94
2022-10-11T08:46:09.195Z,92.14
2022-10-11T08:48:40.522Z,91.11
2022-10-11T08:51:16.922Z,91.21
2022-10-11T08:53:50.050Z,89.87
2022-10-11T08:56:18.414Z,90.33
2022-10-11T08:58:51.014Z,89.79
2022-10-11T09:01:23.603Z,87.13
2022-10-11T09:03:52.341Z,87.71
2022-10-11T09:06:29.432Z,84.84
2022-10-11T09:09:08.460Z,85.48
2022-10-11T09:11:47.278Z,84.90
2022-10-11T09:14:35.526Z,85.00
2022-10-11T09:17:11.301Z,85.59
2022-10-11T09:19:58.170Z,83.28
2022-10-11T09:22:34.760Z,82.40
2022-10-11T09:25:21.979Z,80.75
2022-10-11T09:28:03.609Z,81.71
2022-10-11T09:30:32.367Z,80.93
2022-10-11T09:33:11.290Z,79.71
2022-10-11T09:35:42.325Z,80.84
2022-10-11T09:38:27.238Z,82.38
2022-10-11T09:41:08.560Z,82.64
2022-10-11T09:43:36.127Z,83.75
2022-10-11T09:46:04.354Z,78.96
2022-10-11T09:48:39.942Z,80.95
2022-10-11T09:51:14.077Z,82.55
2022-10-11T09:54:00.219Z,84.66
2022-10-11T09:56:29.677Z,79.89
2022-10-11T09:59:29.110Z,79.38
2022-10-11T10:02:23.013Z,76.74
2022-10-11T10:05:05.740Z,76.39
2022-10-11T10:07:35.059Z,75.04
2022-10-11T10:10:27.819Z,77.10
2022-10-11T10:12:56.350Z,74.79
2022-10-11T10:15:24.999Z,76.38
2022-10-11T10:17:53.922Z,74.15
2022-10-11T10:20:25.910Z,74.40
2022-10-11T10:22:53.916Z,71.22
2022-10-11T10:25:25.843Z,72.10
2022-10-11T10:28:01.490Z,72.73
2022-10-11T10:30:34.629Z,72.71
2022-10-11T10:33:06.878Z,72.21
2022-10-11T10:35:41.423Z,71.78
2022-10-11T10:38:22.835Z,71.25
2022-10-11T10:40:54.942Z,72.25
2022-10-11T10:43:25.797Z,71.55
2022-10-11T10:46:06.727Z,72.64
2022-10-11T10:49:12.030Z,71.06
2022-10-11T10:51:41.154Z,72.07
2022-10-11T10:54:19.589Z,72.26
2022-10-11T10:56:53.017Z,71.47
2022-10-11T10:59:37.760Z,71.68
2022-10-11T11:02:35.530Z,71.45
2022-10-11T11:05:09.411Z,69.46
2022-10-11T11:07:44.898Z,69.33
2022-10-11T11:10:17.847Z,68.18
2022-10-11T11:12:50.556Z,68.61
2022-10-11T11:15:31.249Z,69.14
2022-10-11T11:18:10.832Z,70.66
2022-10-11T11:21:01.240Z,67.91
2022-10-11T11:23:38.953Z,67.78
2022-10-11T11:26:14.212Z,67.13
2022-10-11T11:28:54.246Z,67.27
2022-10-11T11:31:40.986Z,66.72
2022-10-11T11:34:21.340Z,65.04
2022-10-11T11:36:52.162Z,63.65
2022-10-11T11:39:25.448Z,65.16
2022-10-11T11:41:56.712Z,67.08
2022-10-11T11:44:30.327Z,68.20
2022-10-11T11:47:02.324Z,67.19
2022-10-11T11:49:35.048Z,66.74
2022-10-11T11:52:04.062Z,68.62
2022-10-11T11:54:49.340Z,67.73
2022-10-11T11:57:26.532Z,68.12
2022-10-11T12:00:01.059Z,66.24
2022-10-11T12:02:39.739Z,64.62
2022-10-11T12:05:08.348Z,66.36
2022-10-11T12:07:52.889Z,65.89
2022-10-11T12:10:29.664Z,65.89
2022-10-11T12:13:09.199Z,63.87
2022-10-11T12:15:37.082Z,63.87
2022-10-11T12:18:13.480Z,63.64
2022-10-11T12:20:42.739Z,61.05
2022-10-11T12:23:44.999Z,62.38
2022-10-11T12:26:42.733Z,62.88
2022-10-11T12:29:42.313Z,63.14
2022-10-11T12:32:51.819Z,63.11
2022-10-11T12:35:42.371Z,61.99
2022-10-11T12:38:19.954Z,64.94
2022-10-11T12:40:48.869Z,63.39
2022-10-11T12:43:37.099Z,63.67
2022-10-11T12:46:43.501Z,65.38
2022-10-11T12:49:28.917Z,65.27
2022-10-11T12:52:01.019Z,64.93
2022-10-11T12:54:50.653Z,64.74
2022-10-11T12:57:47.304Z,63.62
2022-10-11T13:00:23.590Z,63.45
2022-10-11T13:02:51.265Z,63.21
2022-10-11T13:05:24.082Z,63.23
2022-10-11T13:07:52.543Z,62.57
2022-10-11T13:10:25.665Z,61.30
2022-10-11T13:12:54.888Z,61.42
2022-10-11T13:15:24.858Z,61.97
2022-10-11T13:17:58.840Z,61.55
2022-10-11T13:20:28.875Z,62.10
2022-10-11T13:22:57.708Z,61.92
2022-10-11T13:25:27.138Z,62.62
2022-10-11T13:27:56.489Z,63.03
2022-10-11T13:30:29.406Z,63.16
2022-10-11T13:32:57.711Z,62.58
2022-10-11T13:35:31.579Z,62.76
2022-10-11T13:37:59.446Z,64.32
2022-10-11T13:40:27.970Z,62.93
2022-10-11T13:42:56.565Z,62.71
2022-10-11T13:45:27.577Z,63.59
2022-10-11T13:47:55.977Z,62.79
2022-10-11T13:50:31.545Z,63.76
2022-10-11T13:53:01.367Z,63.23
2022-10-11T13:55:33.128Z,62.83
2022-10-11T13:58:03.300Z,61.48
2022-10-11T14:00:35.155Z,60.52
2022-10-11T14:03:06.490Z,60.31
2022-10-11T14:05:37.582Z,59.53
2022-10-11T14:08:08.357Z,58.81
2022-10-11T14:10:36.178Z,56.82
2022-10-11T14:13:08.092Z,54.75
2022-10-11T14:15:38.866Z,57.41
2022-10-11T14:18:32.468Z,54.26
2022-10-11T14:21:19.808Z,56.11
2022-10-11T14:23:48.051Z,56.32
2022-10-11T14:26:18.855Z,56.32
2022-10-11T14:28:46.775Z,55.72
2022-10-11T14:31:15.565Z,55.02
2022-10-11T14:33:43.001Z,54.95
2022-10-11T14:36:10.447Z,54.05
2022-10-11T14:38:37.857Z,54.99
2022-10-11T14:41:05.287Z,55.19
2022-10-11T14:43:32.687Z,53.99
2022-10-11T14:46:00.087Z,53.22
2022-10-11T14:48:53.799Z,53.91
2022-10-11T14:51:22.076Z,53.96
2022-10-11T14:53:49.595Z,55.54
2022-10-11T14:56:21.350Z,55.21
2022-10-11T14:58:49.387Z,55.54
2022-10-11T15:01:18.147Z,54.72
2022-10-11T15:03:46.932Z,55.09
2022-10-11T15:06:18.772Z,54.30
2022-10-11T15:08:46.500Z,55.58
2022-10-11T15:11:16.785Z,55.97
2022-10-11T15:13:44.305Z,53.87
2022-10-11T15:16:13.352Z,55.00
2022-10-11T15:18:41.019Z,54.48
2022-10-11T15:21:13.924Z,54.15
2022-10-11T15:23:41.335Z,53.25
2022-10-11T15:26:10.871Z,57.49
2022-10-11T15:28:38.564Z,56.13
2022-10-11T15:31:06.273Z,55.85
2022-10-11T15:33:33.663Z,55.78
2022-10-11T15:36:01.312Z,55.99
2022-10-11T15:38:30.096Z,56.04
2022-10-11T15:40:57.530Z,55.18
2022-10-11T15:43:25.337Z,55.91
2022-10-11T15:45:52.834Z,56.20
2022-10-11T15:48:22.497Z,55.69
2022-10-11T15:50:51.332Z,54.47
2022-10-11T15:53:20.703Z,54.45
2022-10-11T15:55:52.023Z,54.61
2022-10-11T15:58:21.363Z,55.19
2022-10-11T16:00:50.735Z,56.40
2022-10-11T16:03:19.145Z,57.42
2022-10-11T16:05:46.552Z,57.42
2022-10-11T16:08:14.191Z,56.99
2022-10-11T16:10:42.552Z,58.57
2022-10-11T16:13:12.721Z,59.52
2022-10-11T16:15:41.603Z,60.07
2022-10-11T16:18:11.502Z,60.73
2022-10-11T16:20:39.964Z,61.24
2022-10-11T16:23:07.735Z,61.45
2022-10-11T16:25:35.975Z,63.27
2022-10-11T16:28:04.113Z,64.83
2022-10-11T16:30:32.845Z,65.86
2022-10-11T16:33:00.526Z,67.00
2022-10-11T16:35:32.424Z,67.08
2022-10-11T16:38:01.008Z,67.20
2022-10-11T16:40:29.971Z,67.96
2022-10-11T16:42:57.712Z,68.56
2022-10-11T16:45:25.216Z,69.11
2022-10-11T16:47:53.974Z,69.09
2022-10-11T16:50:21.560Z,69.75
2022-10-11T16:52:48.952Z,69.45
2022-10-11T16:55:16.660Z,69.81
2022-10-11T16:57:44.036Z,70.34
2022-10-11T17:00:13.668Z,70.71
2022-10-11T17:02:41.074Z,71.88
2022-10-11T17:05:10.323Z,71.90
2022-10-11T17:07:37.774Z,73.07
2022-10-11T17:10:06.178Z,73.84
2022-10-11T17:12:37.020Z,73.96
2022-10-11T17:15:05.687Z,74.82
2022-10-11T17:17:33.115Z,74.62
2022-10-11T17:20:02.140Z,73.42
2022-10-11T17:22:30.886Z,72.95
2022-10-11T17:25:00.179Z,73.30
2022-10-11T17:27:27.633Z,73.12
2022-10-11T17:29:55.056Z,75.01
2022-10-11T17:32:22.489Z,76.23
2022-10-11T17:34:49.893Z,76.18
2022-10-11T17:37:18.156Z,77.10
2022-10-11T17:39:47.070Z,78.03
2022-10-11T17:42:14.516Z,78.59
2022-10-11T17:44:42.003Z,78.84
2022-10-11T17:47:09.412Z,79.08
2022-10-11T17:49:36.926Z,79.74
2022-10-11T17:52:04.432Z,80.07
2022-10-11T17:54:32.169Z,79.67
2022-10-11T17:57:00.996Z,80.06
2022-10-11T17:59:28.742Z,80.76
2022-10-11T18:01:56.154Z,80.62
2022-10-11T18:04:26.799Z,80.60
2022-10-11T18:06:54.940Z,81.80
2022-10-11T18:09:24.513Z,82.13
2022-10-11T18:11:52.313Z,82.84
2022-10-11T18:14:21.117Z,83.19
2022-10-11T18:16:48.708Z,83.73
2022-10-11T18:19:16.299Z,83.30
2022-10-11T18:21:43.817Z,83.64
2022-10-11T18:24:16.219Z,85.11
2022-10-11T18:26:44.597Z,85.87
2022-10-11T18:29:13.094Z,86.40
2022-10-11T18:31:42.207Z,86.30
2022-10-11T18:34:11.093Z,86.29
2022-10-11T18:36:39.312Z,86.27
2022-10-11T18:39:08.850Z,86.16
2022-10-11T18:41:38.691Z,86.30
2022-10-11T18:44:08.434Z,86.99
2022-10-11T18:46:36.621Z,87.36
2022-10-11T18:49:05.484Z,87.08
2022-10-11T18:51:34.739Z,87.35
2022-10-11T18:54:02.256Z,87.30
2022-10-11T18:56:31.208Z,86.27
2022-10-11T18:58:59.980Z,86.71
2022-10-11T19:01:30.023Z,87.40
2022-10-11T19:03:59.438Z,87.28
2022-10-11T19:06:30.668Z,88.02
2022-10-11T19:09:01.465Z,88.19
2022-10-11T19:11:29.520Z,88.31
2022-10-11T19:13:57.925Z,88.29
2022-10-11T19:16:27.177Z,88.66
2022-10-11T19:18:54.745Z,88.58
2022-10-11T19:21:23.085Z,88.62
2022-10-11T19:23:52.560Z,87.61
2022-10-11T19:26:21.743Z,87.24
2022-10-11T19:28:54.747Z,87.15
2022-10-11T19:31:22.300Z,87.64
2022-10-11T19:33:49.995Z,86.78
2022-10-11T19:36:18.246Z,87.55
2022-10-11T19:38:48.142Z,88.51
2022-10-11T19:41:18.740Z,88.82
2022-10-11T19:43:46.687Z,89.98
2022-10-11T19:46:27.375Z,90.13
2022-10-11T19:49:03.824Z,90.05
2022-10-11T19:51:34.671Z,90.43
2022-10-11T19:54:03.611Z,91.01
2022-10-11T19:56:34.326Z,90.62
2022-10-11T19:59:02.656Z,91.20
2022-10-11T20:01:31.701Z,90.84
2022-10-11T20:04:02.127Z,90.61
2022-10-11T20:06:35.871Z,91.13
2022-10-11T20:11:55.886Z,90.53
2022-10-11T20:14:23.478Z,91.10
2022-10-11T20:16:51.928Z,91.13
2022-10-11T20:19:19.586Z,90.79
2022-10-11T20:21:48.247Z,91.10
2022-10-11T20:24:15.656Z,90.98
2022-10-11T20:26:43.082Z,90.89
2022-10-11T20:29:11.802Z,91.47
2022-10-11T20:31:40.649Z,91.28
2022-10-11T20:34:08.259Z,91.67
2022-10-11T20:36:36.514Z,92.24
2022-10-11T20:39:05.588Z,92.57
2022-10-11T20:41:36.796Z,93.04
2022-10-11T20:44:05.093Z,92.66
2022-10-11T20:46:35.451Z,93.24
2022-10-11T20:49:05.305Z,92.41
2022-10-11T20:51:34.361Z,92.47
2022-10-11T20:54:04.062Z,92.42
2022-10-11T20:56:32.056Z,92.52
2022-10-11T20:58:59.594Z,92.59
2022-10-11T21:01:28.843Z,92.94
2022-10-11T21:03:59.809Z,93.26
2022-10-11T21:06:27.570Z,93.55
2022-10-11T21:08:55.729Z,93.75
2022-10-11T21:11:25.855Z,94.13
2022-10-11T21:13:55.432Z,93.27
2022-10-11T21:16:22.885Z,94.06
2022-10-11T21:18:51.585Z,94.07
2022-10-11T21:21:20.940Z,93.71
2022-10-11T21:23:48.418Z,93.32
2022-10-11T21:26:18.220Z,93.74
2022-10-11T21:28:47.192Z,93.76
2022-10-11T21:31:17.295Z,93.48
2022-10-11T21:33:45.244Z,93.46
2022-10-11T21:36:15.715Z,93.44
2022-10-11T21:38:44.795Z,93.69
2022-10-11T21:41:14.212Z,93.24
2022-10-11T21:43:42.082Z,93.24
2022-10-11T21:46:11.196Z,93.87
2022-10-11T21:48:38.651Z,93.70
2022-10-11T21:51:06.660Z,93.71
2022-10-11T21:53:34.299Z,93.34
2022-10-11T21:56:03.069Z,93.42
2022-10-11T21:58:30.511Z,93.25
2022-10-11T22:00:57.985Z,93.79
2022-10-11T22:03:26.496Z,94.15
2022-10-11T22:05:53.904Z,94.42
2022-10-11T22:08:21.328Z,94.65
2022-10-11T22:10:55.052Z,94.78
2022-10-11T22:13:24.211Z,94.49
2022-10-11T22:15:51.820Z,94.52
2022-10-11T22:18:19.255Z,94.61
2022-10-11T22:20:46.934Z,94.93
2022-10-11T22:23:14.448Z,94.97
2022-10-11T22:25:42.116Z,94.89
2022-10-11T22:28:09.837Z,95.56
2022-10-11T22:30:38.643Z,95.49
2022-10-11T22:33:06.108Z,94.07
2022-10-11T22:35:37.520Z,93.29
2022-10-11T22:38:06.545Z,92.11
2022-10-11T22:40:34.124Z,92.30
2022-10-11T22:43:01.539Z,92.00
2022-10-11T22:45:28.953Z,92.80
2022-10-11T22:47:57.758Z,93.13
2022-10-11T22:50:25.203Z,93.29
2022-10-11T22:52:52.612Z,93.41
2022-10-11T22:55:20.409Z,93.51
2022-10-11T22:57:47.885Z,94.14
2022-10-11T23:00:15.760Z,94.67
2022-10-11T23:02:43.453Z,95.08
2022-10-11T23:05:12.613Z,94.74
2022-10-11T23:07:40.149Z,94.84
2022-10-11T23:10:08.419Z,94.54
2022-10-11T23:12:35.852Z,94.29
2022-10-11T23:15:03.272Z,93.52
2022-10-11T23:17:30.680Z,94.35
2022-10-11T23:19:58.105Z,94.45
2022-10-11T23:22:26.967Z,95.56
2022-10-11T23:24:54.409Z,96.00
2022-10-11T23:27:21.821Z,96.22
2022-10-11T23:29:49.275Z,96.65
2022-10-11T23:32:16.727Z,96.67
2022-10-11T23:34:44.131Z,95.96
2022-10-11T23:37:11.535Z,96.00
2022-10-11T23:39:40.281Z,96.25
2022-10-11T23:42:07.668Z,96.04
2022-10-11T23:44:35.058Z,95.55
2022-10-11T23:47:02.788Z,94.39
2022-10-11T23:49:30.163Z,94.22
2022-10-11T23:51:57.567Z,95.16
2022-10-11T23:54:25.051Z,95.28
2022-10-11T23:56:53.831Z,95.65
2022-10-11T23:59:21.240Z,96.24
